createdAt,value
2019-05-20T00:02:24.732Z,15.50
2019-05-20T00:04:47.938Z,15.50
2019-05-20T00:07:16.615Z,15.40
2019-05-20T00:09:45.280Z,15.40
2019-05-20T00:12:14.583Z,15.40
2019-05-20T00:14:43.229Z,15.30
2019-05-20T00:17:11.883Z,15.40
2019-05-20T00:19:40.596Z,15.40
2019-05-20T00:22:09.560Z,15.40
2019-05-20T00:27:12.019Z,15.40
2019-05-20T00:29:40.730Z,15.30
2019-05-20T00:32:09.724Z,15.30
2019-05-20T00:34:38.637Z,15.30
2019-05-20T00:37:07.778Z,15.40
2019-05-20T00:39:36.752Z,15.30
2019-05-20T00:42:05.414Z,15.30
2019-05-20T00:44:34.078Z,15.30
2019-05-20T00:47:02.783Z,15.30
2019-05-20T00:49:31.551Z,15.30
2019-05-20T00:52:00.236Z,15.30
2019-05-20T00:54:28.909Z,15.20
2019-05-20T00:56:57.844Z,15.20
2019-05-20T00:59:26.835Z,15.10
2019-05-20T01:01:55.550Z,15.10
2019-05-20T01:04:24.443Z,15.10
2019-05-20T01:06:53.126Z,15.00
2019-05-20T01:09:21.771Z,15.00
2019-05-20T01:11:50.522Z,15.00
2019-05-20T01:14:19.218Z,15.00
2019-05-20T01:16:47.910Z,15.00
2019-05-20T01:19:16.559Z,15.00
2019-05-20T01:21:45.208Z,15.00
2019-05-20T01:24:13.970Z,14.90
2019-05-20T01:26:42.667Z,14.90
2019-05-20T01:29:11.396Z,14.90
2019-05-20T01:31:40.454Z,14.90
2019-05-20T01:34:09.168Z,14.90
2019-05-20T01:36:37.845Z,14.90
2019-05-20T01:39:07.127Z,14.80
2019-05-20T01:41:35.875Z,14.80
2019-05-20T01:44:04.615Z,14.80
2019-05-20T01:46:34.175Z,14.80
2019-05-20T01:49:03.104Z,14.90
2019-05-20T01:51:32.127Z,14.90
2019-05-20T01:54:01.056Z,14.90
2019-05-20T01:56:29.716Z,14.90
2019-05-20T01:58:58.392Z,14.90
2019-05-20T02:01:27.327Z,15.00
2019-05-20T02:03:56.319Z,15.00
2019-05-20T02:06:25.039Z,15.00
2019-05-20T02:08:53.843Z,14.90
2019-05-20T02:11:22.576Z,14.90
2019-05-20T02:13:58.160Z,14.90
2019-05-20T02:16:27.395Z,14.80
2019-05-20T02:18:56.498Z,14.70
2019-05-20T02:21:25.151Z,14.70
2019-05-20T02:23:54.069Z,14.70
2019-05-20T02:26:22.747Z,14.70
2019-05-20T02:28:51.751Z,14.70
2019-05-20T02:31:20.498Z,14.70
2019-05-20T02:33:52.460Z,14.70
2019-05-20T02:36:19.848Z,14.70
2019-05-20T02:38:48.820Z,14.70
2019-05-20T02:41:17.732Z,14.70
2019-05-20T02:43:46.701Z,14.60
2019-05-20T02:46:15.356Z,14.60
2019-05-20T02:48:44.029Z,14.50
2019-05-20T02:51:12.667Z,14.60
2019-05-20T02:53:41.680Z,14.50
2019-05-20T02:56:10.348Z,14.50
2019-05-20T02:58:39.013Z,14.50
2019-05-20T03:01:07.692Z,14.50
2019-05-20T03:03:36.426Z,14.50
2019-05-20T03:06:05.331Z,14.40
2019-05-20T03:08:34.356Z,14.40
2019-05-20T03:11:02.988Z,14.30
2019-05-20T03:13:31.656Z,14.30
2019-05-20T03:16:00.581Z,14.30
2019-05-20T03:18:29.237Z,14.30
2019-05-20T03:20:57.924Z,14.30
2019-05-20T03:23:27.078Z,14.30
2019-05-20T03:25:56.186Z,14.30
2019-05-20T03:28:25.146Z,14.30
2019-05-20T03:30:54.216Z,14.30
2019-05-20T03:33:23.009Z,14.30
2019-05-20T03:35:52.089Z,14.30
2019-05-20T03:38:20.899Z,14.30
2019-05-20T03:40:49.630Z,14.30
2019-05-20T03:43:18.277Z,14.40
2019-05-20T03:45:47.284Z,14.40
2019-05-20T03:48:16.227Z,14.40
2019-05-20T03:50:44.888Z,14.50
2019-05-20T03:53:13.536Z,14.60
2019-05-20T03:55:42.552Z,14.70
2019-05-20T03:58:13.685Z,14.70
2019-05-20T04:00:44.827Z,14.80
2019-05-20T04:03:14.565Z,14.90
2019-05-20T04:05:43.684Z,15.00
2019-05-20T04:08:12.527Z,15.00
2019-05-20T04:10:41.520Z,15.10
2019-05-20T04:13:10.508Z,15.30
2019-05-20T04:15:39.278Z,15.30
2019-05-20T04:18:08.159Z,15.30
2019-05-20T04:20:37.223Z,15.50
2019-05-20T04:23:06.328Z,15.50
2019-05-20T04:25:35.168Z,15.50
2019-05-20T04:28:03.971Z,15.60
2019-05-20T04:30:32.992Z,15.70
2019-05-20T04:33:01.916Z,16.00
2019-05-20T04:35:30.604Z,17.40
2019-05-20T04:37:59.697Z,18.70
2019-05-20T04:40:28.413Z,19.60
2019-05-20T04:42:57.068Z,19.50
2019-05-20T04:45:25.747Z,19.40
2019-05-20T04:47:54.482Z,19.30
2019-05-20T04:50:23.145Z,19.90
2019-05-20T04:52:52.480Z,20.60
2019-05-20T04:55:21.192Z,20.80
2019-05-20T04:57:52.140Z,20.90
2019-05-20T05:00:43.383Z,20.50
2019-05-20T05:03:12.076Z,19.60
2019-05-20T05:05:40.728Z,19.20
2019-05-20T05:08:09.501Z,18.70
2019-05-20T05:10:38.177Z,18.40
2019-05-20T05:13:07.331Z,18.50
2019-05-20T05:15:36.115Z,18.50
2019-05-20T05:18:05.244Z,18.40
2019-05-20T05:20:34.478Z,18.40
2019-05-20T05:23:03.418Z,18.70
2019-05-20T05:25:32.321Z,19.30
2019-05-20T05:28:01.753Z,20.40
2019-05-20T05:30:30.605Z,20.90
2019-05-20T05:32:59.574Z,21.30
2019-05-20T05:35:28.283Z,21.20
2019-05-20T05:37:57.329Z,20.70
2019-05-20T05:40:29.843Z,20.00
2019-05-20T05:42:58.922Z,19.40
2019-05-20T05:45:31.943Z,20.10
2019-05-20T05:48:01.059Z,21.50
2019-05-20T05:50:29.968Z,23.10
2019-05-20T05:52:58.890Z,24.30
2019-05-20T05:55:28.351Z,24.10
2019-05-20T05:57:57.135Z,22.90
2019-05-20T06:00:26.119Z,21.50
2019-05-20T06:02:54.788Z,21.10
2019-05-20T06:05:23.700Z,20.80
2019-05-20T06:07:52.808Z,21.20
2019-05-20T06:10:23.169Z,22.40
2019-05-20T06:12:52.083Z,23.60
2019-05-20T06:15:21.273Z,24.10
2019-05-20T06:17:50.327Z,24.10
2019-05-20T06:20:19.642Z,24.50
2019-05-20T06:22:48.355Z,24.60
2019-05-20T06:25:17.298Z,25.50
2019-05-20T06:27:45.961Z,26.00
2019-05-20T06:30:15.910Z,25.90
2019-05-20T06:32:44.670Z,25.90
2019-05-20T06:35:13.783Z,26.50
2019-05-20T06:37:46.272Z,27.00
2019-05-20T06:40:15.371Z,27.00
2019-05-20T06:42:44.213Z,27.00
2019-05-20T06:45:13.177Z,27.50
2019-05-20T06:47:41.942Z,26.00
2019-05-20T06:50:12.002Z,26.20
2019-05-20T06:52:40.738Z,25.70
2019-05-20T06:55:09.937Z,24.70
2019-05-20T06:57:38.923Z,25.10
2019-05-20T07:00:09.285Z,25.50
2019-05-20T07:02:38.205Z,26.50
2019-05-20T07:05:07.663Z,26.30
2019-05-20T07:07:36.394Z,26.60
2019-05-20T07:10:05.749Z,26.70
2019-05-20T07:12:41.056Z,26.60
2019-05-20T07:15:05.599Z,27.20
2019-05-20T07:17:34.249Z,27.20
2019-05-20T07:20:02.931Z,27.10
2019-05-20T07:22:31.886Z,26.80
2019-05-20T07:25:00.651Z,27.70
2019-05-20T07:27:29.295Z,28.20
2019-05-20T07:29:57.967Z,28.90
2019-05-20T07:32:27.315Z,28.50
2019-05-20T07:34:56.276Z,28.60
2019-05-20T07:37:25.231Z,28.40
2019-05-20T07:39:53.975Z,28.50
2019-05-20T07:42:22.961Z,28.90
2019-05-20T07:44:51.633Z,29.20
2019-05-20T07:47:20.759Z,28.90
2019-05-20T07:49:50.262Z,28.80
2019-05-20T07:52:20.413Z,28.00
2019-05-20T07:54:50.125Z,28.10
2019-05-20T07:57:20.908Z,28.10
2019-05-20T07:59:52.765Z,27.90
2019-05-20T08:02:21.504Z,28.40
2019-05-20T08:04:50.629Z,28.70
2019-05-20T08:07:29.698Z,29.00
2019-05-20T08:09:49.809Z,28.00
2019-05-20T08:12:19.030Z,28.00
2019-05-20T08:14:47.738Z,27.20
2019-05-20T08:17:16.478Z,26.80
2019-05-20T08:19:45.137Z,27.10
2019-05-20T08:22:14.261Z,28.10
2019-05-20T08:24:43.287Z,28.00
2019-05-20T08:27:11.979Z,27.80
2019-05-20T08:29:40.688Z,28.00
2019-05-20T08:32:09.449Z,28.00
2019-05-20T08:34:39.148Z,28.00
2019-05-20T08:37:08.491Z,28.20
2019-05-20T08:39:37.522Z,28.40
2019-05-20T08:42:06.179Z,28.20
2019-05-20T08:44:34.891Z,27.80
2019-05-20T08:47:04.033Z,27.60
2019-05-20T08:49:33.104Z,28.70
2019-05-20T08:52:01.748Z,29.20
2019-05-20T08:54:30.761Z,28.70
2019-05-20T08:56:59.551Z,28.40
2019-05-20T08:59:28.245Z,29.00
2019-05-20T09:01:56.954Z,29.50
2019-05-20T09:04:26.110Z,29.10
2019-05-20T09:06:54.905Z,29.10
2019-05-20T09:09:24.023Z,28.70
2019-05-20T09:11:52.735Z,28.20
2019-05-20T09:14:21.761Z,27.30
2019-05-20T09:16:50.907Z,27.90
2019-05-20T09:19:20.348Z,27.60
2019-05-20T09:21:49.115Z,27.60
2019-05-20T09:24:19.110Z,28.00
2019-05-20T09:26:47.979Z,28.40
2019-05-20T09:29:16.640Z,28.40
2019-05-20T09:31:46.084Z,27.90
2019-05-20T09:34:15.168Z,27.80
2019-05-20T09:36:44.665Z,28.60
2019-05-20T09:39:13.716Z,29.00
2019-05-20T09:41:42.714Z,28.90
2019-05-20T09:44:11.484Z,28.80
2019-05-20T09:46:40.178Z,28.00
2019-05-20T09:49:08.960Z,28.10
2019-05-20T09:51:38.357Z,28.00
2019-05-20T09:54:07.061Z,27.50
2019-05-20T09:56:36.648Z,27.60
2019-05-20T09:59:05.750Z,28.00
2019-05-20T10:01:34.409Z,27.80
2019-05-20T10:04:03.414Z,28.10
2019-05-20T10:06:32.170Z,28.10
2019-05-20T10:09:00.898Z,28.40
2019-05-20T10:11:29.572Z,28.50
2019-05-20T10:13:58.211Z,28.30
2019-05-20T10:16:27.165Z,28.70
2019-05-20T10:18:56.151Z,28.40
2019-05-20T10:21:24.886Z,28.20
2019-05-20T10:23:53.535Z,27.70
2019-05-20T10:26:22.300Z,27.20
2019-05-20T10:28:50.960Z,26.40
2019-05-20T10:31:19.683Z,27.00
2019-05-20T10:33:48.368Z,27.80
2019-05-20T10:36:17.672Z,28.30
2019-05-20T10:38:57.836Z,27.60
2019-05-20T10:41:16.789Z,27.60
2019-05-20T10:43:45.592Z,27.50
2019-05-20T10:46:14.335Z,27.30
2019-05-20T10:48:42.979Z,26.90
2019-05-20T10:51:12.081Z,27.20
2019-05-20T10:53:41.450Z,26.50
2019-05-20T10:56:10.523Z,26.60
2019-05-20T10:58:39.292Z,26.40
2019-05-20T11:01:07.982Z,26.10
2019-05-20T11:03:37.751Z,25.90
2019-05-20T11:06:06.958Z,25.70
2019-05-20T11:08:35.723Z,25.30
2019-05-20T11:11:04.720Z,25.20
2019-05-20T11:13:33.899Z,24.80
2019-05-20T11:16:02.795Z,24.70
2019-05-20T11:18:31.432Z,24.50
2019-05-20T11:21:00.139Z,24.50
2019-05-20T11:23:28.799Z,24.50
2019-05-20T11:25:57.473Z,24.50
2019-05-20T11:28:26.500Z,24.50
2019-05-20T11:30:55.143Z,24.60
2019-05-20T11:33:23.845Z,24.70
2019-05-20T11:35:52.651Z,24.80
2019-05-20T11:38:21.460Z,24.70
2019-05-20T11:40:50.127Z,24.70
2019-05-20T11:43:19.500Z,24.90
2019-05-20T11:45:48.155Z,24.90
2019-05-20T11:48:16.899Z,24.70
2019-05-20T11:50:45.564Z,24.80
2019-05-20T11:53:14.351Z,24.60
2019-05-20T11:55:43.332Z,24.60
2019-05-20T11:58:16.237Z,24.50
2019-05-20T12:00:42.451Z,24.60
2019-05-20T12:03:11.136Z,24.90
2019-05-20T12:05:39.913Z,25.10
2019-05-20T12:08:08.970Z,25.40
2019-05-20T12:10:37.650Z,25.60
2019-05-20T12:13:06.547Z,25.40
2019-05-20T12:15:35.271Z,25.40
2019-05-20T12:18:04.003Z,25.20
2019-05-20T12:20:32.718Z,25.10
2019-05-20T12:23:01.362Z,25.50
2019-05-20T12:25:30.005Z,25.40
2019-05-20T12:27:59.014Z,25.40
2019-05-20T12:30:28.053Z,25.60
2019-05-20T12:33:17.014Z,25.90
2019-05-20T12:35:27.548Z,25.50
2019-05-20T12:37:56.931Z,25.30
2019-05-20T12:40:25.768Z,25.30
2019-05-20T12:42:54.479Z,25.50
2019-05-20T12:45:23.502Z,25.90
2019-05-20T12:47:52.602Z,26.00
2019-05-20T12:50:22.866Z,25.80
2019-05-20T12:52:51.528Z,25.90
2019-05-20T12:55:20.374Z,25.70
2019-05-20T12:57:49.050Z,25.70
2019-05-20T13:00:18.371Z,25.60
2019-05-20T13:02:47.152Z,25.30
2019-05-20T13:05:15.926Z,25.30
2019-05-20T13:07:44.704Z,25.20
2019-05-20T13:10:32.064Z,25.30
2019-05-20T13:12:44.174Z,25.40
2019-05-20T13:15:14.603Z,25.40
2019-05-20T13:17:45.046Z,25.10
2019-05-20T13:20:13.945Z,24.90
2019-05-20T13:22:43.225Z,24.90
2019-05-20T13:25:12.246Z,25.00
2019-05-20T13:27:40.948Z,24.90
2019-05-20T13:30:10.714Z,24.70
2019-05-20T13:32:39.373Z,24.50
2019-05-20T13:35:08.750Z,24.30
2019-05-20T13:37:37.399Z,24.30
2019-05-20T13:40:07.099Z,24.00
2019-05-20T13:42:35.955Z,23.70
2019-05-20T13:45:08.026Z,23.70
2019-05-20T13:47:36.730Z,23.70
2019-05-20T13:50:06.368Z,23.80
2019-05-20T13:52:35.064Z,23.80
2019-05-20T13:55:04.292Z,23.70
2019-05-20T13:57:33.317Z,23.50
2019-05-20T14:00:02.349Z,23.50
2019-05-20T14:02:31.440Z,23.40
2019-05-20T14:05:00.360Z,23.20
2019-05-20T14:07:29.017Z,23.10
2019-05-20T14:09:57.697Z,23.00
2019-05-20T14:12:26.894Z,23.00
2019-05-20T14:14:55.631Z,22.80
2019-05-20T14:17:24.353Z,22.60
2019-05-20T14:19:53.051Z,22.30
2019-05-20T14:22:22.153Z,22.00
2019-05-20T14:24:50.888Z,21.70
2019-05-20T14:27:19.752Z,21.50
2019-05-20T14:29:48.389Z,21.30
2019-05-20T14:32:17.218Z,21.20
2019-05-20T14:34:46.094Z,21.10
2019-05-20T14:37:14.744Z,21.00
2019-05-20T14:39:43.782Z,20.80
2019-05-20T14:42:12.482Z,20.70
2019-05-20T14:44:41.468Z,20.70
2019-05-20T14:47:10.394Z,20.50
2019-05-20T14:49:39.192Z,20.50
2019-05-20T14:52:07.958Z,20.50
2019-05-20T14:54:36.601Z,20.40
2019-05-20T14:57:05.236Z,20.30
2019-05-20T14:59:34.106Z,20.40
2019-05-20T15:02:03.048Z,20.30
2019-05-20T15:04:31.819Z,20.20
2019-05-20T15:07:00.705Z,20.20
2019-05-20T15:09:29.428Z,20.20
2019-05-20T15:11:58.063Z,20.20
2019-05-20T15:14:27.132Z,19.80
2019-05-20T15:16:55.782Z,19.10
2019-05-20T15:19:24.768Z,18.60
2019-05-20T15:21:53.451Z,18.40
2019-05-20T15:24:22.208Z,18.00
2019-05-20T15:26:51.646Z,17.70
2019-05-20T15:29:28.223Z,17.60
2019-05-20T15:31:50.897Z,17.40
2019-05-20T15:34:19.700Z,17.30
2019-05-20T15:36:48.472Z,17.30
2019-05-20T15:39:17.165Z,17.30
2019-05-20T15:41:46.326Z,17.40
2019-05-20T15:44:15.064Z,17.40
2019-05-20T15:46:44.059Z,17.50
2019-05-20T15:49:12.795Z,17.50
2019-05-20T15:51:41.801Z,17.50
2019-05-20T15:54:10.432Z,17.70
2019-05-20T15:56:39.866Z,17.70
2019-05-20T15:59:12.525Z,17.80
2019-05-20T16:01:41.751Z,17.80
2019-05-20T16:04:10.601Z,17.90
2019-05-20T16:06:39.304Z,17.90
2019-05-20T16:09:08.570Z,17.90
2019-05-20T16:11:37.754Z,17.90
2019-05-20T16:14:06.833Z,18.10
2019-05-20T16:16:35.793Z,18.30
2019-05-20T16:19:04.889Z,18.50
2019-05-20T16:21:33.986Z,18.60
2019-05-20T16:24:02.791Z,18.70
2019-05-20T16:26:31.515Z,18.80
2019-05-20T16:29:00.817Z,18.90
2019-05-20T16:31:29.749Z,18.90
2019-05-20T16:33:59.576Z,19.00
2019-05-20T16:36:28.625Z,19.10
2019-05-20T16:38:57.292Z,19.00
2019-05-20T16:41:25.966Z,18.90
2019-05-20T16:43:54.616Z,18.80
2019-05-20T16:46:23.600Z,18.90
2019-05-20T16:48:52.526Z,19.00
2019-05-20T16:51:22.455Z,19.20
2019-05-20T16:53:51.636Z,19.10
2019-05-20T16:56:20.287Z,19.10
2019-05-20T16:58:48.985Z,19.10
2019-05-20T17:01:17.921Z,19.10
2019-05-20T17:03:46.551Z,19.10
2019-05-20T17:06:15.594Z,19.20
2019-05-20T17:08:44.337Z,19.30
2019-05-20T17:11:13.203Z,19.30
2019-05-20T17:13:42.148Z,19.40
2019-05-20T17:16:11.832Z,19.30
2019-05-20T17:18:40.500Z,19.30
2019-05-20T17:21:09.564Z,19.40
2019-05-20T17:23:38.236Z,19.50
2019-05-20T17:26:06.944Z,19.50
2019-05-20T17:28:35.605Z,19.40
2019-05-20T17:31:04.667Z,19.40
2019-05-20T17:33:33.316Z,19.40
2019-05-20T17:36:02.115Z,19.40
2019-05-20T17:38:30.847Z,19.40
2019-05-20T17:40:59.718Z,19.50
2019-05-20T17:43:28.828Z,19.40
2019-05-20T17:45:57.773Z,19.40
2019-05-20T17:48:26.533Z,19.20
2019-05-20T17:50:55.540Z,19.20
2019-05-20T17:53:24.473Z,19.30
2019-05-20T17:55:53.116Z,19.30
2019-05-20T17:58:21.797Z,19.30
2019-05-20T18:00:50.960Z,19.00
2019-05-20T18:03:20.435Z,18.80
2019-05-20T18:05:49.361Z,18.80
2019-05-20T18:08:18.189Z,18.70
2019-05-20T18:10:47.030Z,18.50
2019-05-20T18:13:16.135Z,18.40
2019-05-20T18:15:46.274Z,18.40
2019-05-20T18:18:14.980Z,18.30
2019-05-20T18:20:43.653Z,18.20
2019-05-20T18:23:12.387Z,18.10
2019-05-20T18:25:42.932Z,18.10
2019-05-20T18:28:11.768Z,18.00
2019-05-20T18:30:41.969Z,18.00
2019-05-20T18:33:10.640Z,18.00
2019-05-20T18:35:39.472Z,17.90
2019-05-20T18:38:08.260Z,17.90
2019-05-20T18:40:37.321Z,17.90
2019-05-20T18:43:06.009Z,17.80
2019-05-20T18:45:38.906Z,17.90
2019-05-20T18:48:07.706Z,17.90
2019-05-20T18:50:36.775Z,17.80
2019-05-20T18:53:05.996Z,17.80
2019-05-20T18:55:35.082Z,17.80
2019-05-20T18:58:04.495Z,17.80
2019-05-20T19:00:33.217Z,17.80
2019-05-20T19:03:02.120Z,17.70
2019-05-20T19:05:30.808Z,17.70
2019-05-20T19:07:59.527Z,17.70
2019-05-20T19:10:28.341Z,17.70
2019-05-20T19:12:57.031Z,17.70
2019-05-20T19:15:26.321Z,17.60
2019-05-20T19:17:55.151Z,17.50
2019-05-20T19:20:24.070Z,17.40
2019-05-20T19:22:53.128Z,17.40
2019-05-20T19:25:35.631Z,17.30
2019-05-20T19:27:53.032Z,17.20
2019-05-20T19:30:21.955Z,17.20
2019-05-20T19:32:50.734Z,17.10
2019-05-20T19:35:19.734Z,17.00
2019-05-20T19:37:48.408Z,17.00
2019-05-20T19:40:17.311Z,16.90
2019-05-20T19:42:46.027Z,16.90
2019-05-20T19:45:14.784Z,16.90
2019-05-20T19:47:43.549Z,16.90
2019-05-20T19:50:12.570Z,16.90
2019-05-20T19:52:41.558Z,16.80
2019-05-20T19:55:11.763Z,16.80
2019-05-20T19:57:40.412Z,16.80
2019-05-20T20:00:09.586Z,16.80
2019-05-20T20:02:38.417Z,16.80
2019-05-20T20:05:07.495Z,16.90
2019-05-20T20:07:36.554Z,16.90
2019-05-20T20:10:05.797Z,16.90
2019-05-20T20:12:34.461Z,16.90
2019-05-20T20:15:03.691Z,16.90
2019-05-20T20:17:32.738Z,16.90
2019-05-20T20:20:01.618Z,16.90
2019-05-20T20:22:30.328Z,16.90
2019-05-20T20:24:59.500Z,16.90
2019-05-20T20:27:28.975Z,16.80
2019-05-20T20:29:57.703Z,16.80
2019-05-20T20:32:37.620Z,16.70
2019-05-20T20:34:57.071Z,16.70
2019-05-20T20:37:26.220Z,16.70
2019-05-20T20:39:55.145Z,16.60
2019-05-20T20:42:23.811Z,16.60
2019-05-20T20:44:52.541Z,16.50
2019-05-20T20:47:21.215Z,16.50
2019-05-20T20:49:50.133Z,16.40
2019-05-20T20:52:18.837Z,16.30
2019-05-20T20:54:47.549Z,16.30
2019-05-20T20:57:16.360Z,16.30
2019-05-20T20:59:45.246Z,16.10
2019-05-20T21:02:14.227Z,16.10
2019-05-20T21:04:43.218Z,16.10
2019-05-20T21:07:12.259Z,16.00
2019-05-20T21:09:40.939Z,15.90
2019-05-20T21:12:10.036Z,15.90
2019-05-20T21:14:38.801Z,15.90
2019-05-20T21:17:07.945Z,15.80
2019-05-20T21:19:36.632Z,15.80
2019-05-20T21:22:05.827Z,15.70
2019-05-20T21:24:37.420Z,15.70
2019-05-20T21:27:06.172Z,15.70
2019-05-20T21:29:37.398Z,15.60
2019-05-20T21:32:06.101Z,15.60
2019-05-20T21:34:35.522Z,15.50
2019-05-20T21:37:04.183Z,15.50
2019-05-20T21:39:33.079Z,15.50
2019-05-20T21:42:01.986Z,15.50
2019-05-20T21:44:30.647Z,15.50
2019-05-20T21:46:59.332Z,15.40
2019-05-20T21:49:28.125Z,15.40
2019-05-20T21:51:56.755Z,15.40
2019-05-20T21:55:47.396Z,15.30
2019-05-20T21:58:16.064Z,15.20
2019-05-20T22:00:53.422Z,15.20
2019-05-20T22:03:24.923Z,15.20
2019-05-20T22:05:53.164Z,15.10
2019-05-20T22:08:22.228Z,15.10
2019-05-20T22:10:51.003Z,15.00
2019-05-20T22:13:19.652Z,15.00
2019-05-20T22:15:48.328Z,14.90
2019-05-20T22:18:17.014Z,15.00
2019-05-20T22:20:45.691Z,15.00
2019-05-20T22:23:32.117Z,15.00
2019-05-20T22:26:00.822Z,15.00
2019-05-20T22:28:29.692Z,14.90
2019-05-20T22:30:58.386Z,14.90
2019-05-20T22:33:40.474Z,14.80
2019-05-20T22:35:57.492Z,14.80
2019-05-20T22:38:26.587Z,14.70
2019-05-20T22:40:55.971Z,14.70
2019-05-20T22:43:24.674Z,14.60
2019-05-20T22:45:53.519Z,14.60
2019-05-20T22:48:22.709Z,14.50
2019-05-20T22:50:51.459Z,14.50
2019-05-20T22:53:20.210Z,14.50
2019-05-20T22:55:48.892Z,14.50
2019-05-20T22:58:17.556Z,14.40
2019-05-20T23:00:46.253Z,14.50
2019-05-20T23:03:15.344Z,14.40
2019-05-20T23:05:44.136Z,14.30
2019-05-20T23:08:13.293Z,14.30
2019-05-20T23:10:42.256Z,14.30
2019-05-20T23:13:10.987Z,14.30
2019-05-20T23:15:39.677Z,14.20
2019-05-20T23:18:08.443Z,14.30
2019-05-20T23:20:37.561Z,14.20
2019-05-20T23:23:06.227Z,14.10
2019-05-20T23:25:35.250Z,14.10
2019-05-20T23:28:03.993Z,14.10
2019-05-20T23:30:33.261Z,14.00
2019-05-20T23:33:02.411Z,14.00
2019-05-20T23:35:31.492Z,14.00
2019-05-20T23:38:00.237Z,13.90
2019-05-20T23:40:29.369Z,13.90
2019-05-20T23:42:58.530Z,13.90
2019-05-20T23:45:27.196Z,14.00
2019-05-20T23:47:55.855Z,13.90
2019-05-20T23:50:24.793Z,13.80
2019-05-20T23:52:53.466Z,13.80
2019-05-20T23:55:22.312Z,13.80
2019-05-20T23:59:45.024Z,13.80
